Time;durP1;ratioP1;P1;durP2;ratioP2;P2;SDS_P1;SDS_P2;PMS_P1;PMS_P2;Temp;Humidity;BMP_temperature;BMP_pressure;BME280_temperature;BME280_humidity;BME280_pressure;Samples;Min_cycle;Max_cycle;Signal;HPM_P1;HPM_P2
2022/01/18 00:00:18;;;;;;;6.80;3.35;;;21.20;57.00;;;;;;4947430;28;88412;-86
2022/01/18 00:02:44;;;;;;;7.13;3.50;;;21.30;57.10;;;;;;4954540;28;89527;-88
2022/01/18 00:05:21;;;;;;;5.95;3.50;;;21.20;57.00;;;;;;4954547;28;87939;-88
2022/01/18 00:07:47;;;;;;;6.88;3.75;;;21.20;56.90;;;;;;4945616;28;87961;-88
2022/01/18 00:10:14;;;;;;;6.75;3.55;;;21.20;56.90;;;;;;4955323;28;87328;-87
2022/01/18 00:18:05;;;;;;;6.63;4.20;;;21.20;57.10;;;;;;4955442;28;87236;-90
2022/01/18 00:23:02;;;;;;;6.18;3.78;;;21.20;57.00;;;;;;4954339;28;87547;-89
2022/01/18 00:25:37;;;;;;;5.90;3.58;;;21.10;56.90;;;;;;4953993;28;87194;-87
2022/01/18 00:28:05;;;;;;;5.70;3.75;;;21.10;57.00;;;;;;4969202;28;88468;-89
2022/01/18 00:33:14;;;;;;;8.38;3.70;;;21.10;56.70;;;;;;4953681;28;87747;-85
2022/01/18 00:35:42;;;;;;;4.78;3.40;;;21.10;56.80;;;;;;4954208;28;87396;-84
2022/01/18 00:38:17;;;;;;;6.72;3.58;;;21.10;56.90;;;;;;4954971;28;87206;-88
2022/01/18 00:40:43;;;;;;;6.40;3.42;;;21.10;56.70;;;;;;4953619;28;87099;-82
2022/01/18 00:43:09;;;;;;;6.63;3.40;;;21.10;56.60;;;;;;4953145;28;87772;-88
2022/01/18 00:45:34;;;;;;;5.63;3.17;;;21.10;56.70;;;;;;4952900;28;90197;-85
2022/01/18 00:48:02;;;;;;;4.75;3.35;;;21.10;56.60;;;;;;4953390;28;87807;-87
2022/01/18 00:50:32;;;;;;;4.88;3.05;;;21.00;56.60;;;;;;4952386;28;89485;-87
2022/01/18 00:52:58;;;;;;;6.47;3.47;;;21.10;56.60;;;;;;4952573;28;88916;-88
2022/01/18 00:55:26;;;;;;;5.75;3.25;;;21.00;56.40;;;;;;4954404;28;88332;-84
2022/01/18 00:57:52;;;;;;;6.45;3.35;;;21.00;56.60;;;;;;4954760;28;88000;-85
2022/01/18 01:00:20;;;;;;;5.57;3.60;;;21.00;56.50;;;;;;4954910;28;87025;-86
2022/01/18 01:02:46;;;;;;;6.40;3.40;;;21.10;56.50;;;;;;4954770;28;87830;-87
2022/01/18 01:05:12;;;;;;;6.55;3.47;;;21.00;56.50;;;;;;4954223;28;87563;-89
2022/01/18 01:07:40;;;;;;;7.63;3.33;;;21.00;56.50;;;;;;4954296;28;86916;-84
2022/01/18 01:10:06;;;;;;;6.18;3.40;;;21.00;56.40;;;;;;4954284;28;86735;-87
2022/01/18 01:12:31;;;;;;;5.22;3.45;;;21.00;56.40;;;;;;4953713;28;87545;-87
2022/01/18 01:15:05;;;;;;;5.80;3.22;;;21.00;56.30;;;;;;4953883;28;87286;-87
2022/01/18 01:17:42;;;;;;;4.65;3.15;;;21.00;56.40;;;;;;4953321;28;88439;-84
2022/01/18 01:34:25;;;;;;;5.63;3.35;;;21.00;56.30;;;;;;4954102;28;87587;-87
2022/01/18 01:37:13;;;;;;;5.28;3.50;;;20.90;56.30;;;;;;4953675;28;87227;-85
2022/01/18 01:44:51;;;;;;;6.00;3.30;;;20.90;56.30;;;;;;4953520;28;88341;-87
2022/01/18 01:47:20;;;;;;;5.35;3.60;;;20.90;56.20;;;;;;4952917;28;88896;-88
2022/01/18 01:49:51;;;;;;;7.65;3.70;;;20.90;56.10;;;;;;4953400;28;87416;-85
2022/01/18 01:52:20;;;;;;;6.80;3.85;;;20.90;56.10;;;;;;4968230;28;88371;-89
2022/01/18 01:54:48;;;;;;;4.78;3.30;;;20.90;56.30;;;;;;4953094;28;87568;-86
2022/01/18 01:57:14;;;;;;;4.35;2.90;;;20.90;56.10;;;;;;4953301;28;87439;-86
2022/01/18 01:59:40;;;;;;;5.03;3.28;;;20.90;56.10;;;;;;4953195;28;88075;-88
2022/01/18 02:02:06;;;;;;;5.53;3.20;;;20.90;56.10;;;;;;4968180;28;89262;-88
2022/01/18 02:04:32;;;;;;;4.72;3.30;;;20.90;56.00;;;;;;4952606;28;88569;-88
2022/01/18 02:06:58;;;;;;;7.10;3.35;;;20.90;56.00;;;;;;4952447;28;87681;-84
2022/01/18 02:09:23;;;;;;;4.43;3.00;;;20.90;56.00;;;;;;4952801;28;88537;-86
2022/01/18 02:11:51;;;;;;;4.80;3.00;;;20.90;56.00;;;;;;4953188;28;87860;-86
2022/01/18 02:14:20;;;;;;;4.88;3.13;;;20.90;55.90;;;;;;4953929;28;87752;-88
2022/01/18 02:22:15;;;;;;;4.55;3.30;;;20.80;55.90;;;;;;4953097;28;86936;-87
2022/01/18 02:24:41;;;;;;;5.97;3.60;;;20.80;56.40;;;;;;4952191;28;88157;-89
2022/01/18 02:27:07;;;;;;;6.13;3.80;;;20.80;55.70;;;;;;4952676;28;87794;-89
2022/01/18 02:29:33;;;;;;;4.72;3.20;;;20.80;55.70;;;;;;4953335;28;87775;-88
2022/01/18 02:31:58;;;;;;;5.82;3.35;;;20.80;55.80;;;;;;4953140;28;87487;-86
2022/01/18 02:34:24;;;;;;;5.50;3.10;;;20.80;55.80;;;;;;4952739;28;88979;-87
2022/01/18 02:36:53;;;;;;;5.00;3.10;;;20.80;55.70;;;;;;4952660;28;88162;-86
2022/01/18 02:39:22;;;;;;;7.18;3.22;;;20.80;55.80;;;;;;4952727;28;88176;-88
2022/01/18 02:41:54;;;;;;;5.20;3.43;;;20.80;55.80;;;;;;4952820;28;88095;-85
2022/01/18 02:44:20;;;;;;;6.72;3.40;;;20.80;55.70;;;;;;4952731;28;87808;-86
2022/01/18 02:46:46;;;;;;;5.80;3.28;;;20.80;55.70;;;;;;4951779;28;87676;-89
2022/01/18 02:49:19;;;;;;;6.07;3.20;;;20.80;55.70;;;;;;4951966;28;87667;-88
2022/01/18 02:51:45;;;;;;;7.25;3.45;;;20.80;55.70;;;;;;4943501;28;90016;-88
2022/01/18 02:54:14;;;;;;;5.93;3.22;;;20.80;55.70;;;;;;4952701;28;87644;-84
2022/01/18 02:56:47;;;;;;;3.83;2.85;;;20.80;55.80;;;;;;4952103;28;87500;-87
2022/01/18 02:59:20;;;;;;;6.57;3.30;;;20.80;55.70;;;;;;4952464;28;88628;-89
2022/01/18 03:04:46;;;;;;;5.65;3.40;;;20.70;55.70;;;;;;4952328;28;88053;-88
2022/01/18 03:07:12;;;;;;;4.43;2.90;;;20.80;55.80;;;;;;4949605;28;90194;-85
2022/01/18 03:09:38;;;;;;;6.78;3.03;;;20.70;55.60;;;;;;4952437;28;87536;-89
2022/01/18 03:12:06;;;;;;;5.13;3.22;;;20.70;55.60;;;;;;4952486;28;87118;-85
2022/01/18 03:14:32;;;;;;;5.68;3.10;;;20.70;55.50;;;;;;4952198;28;88305;-85
2022/01/18 03:16:57;;;;;;;5.03;3.38;;;20.70;55.70;;;;;;4951540;28;87384;-83
2022/01/18 03:19:23;;;;;;;4.18;2.85;;;20.70;55.50;;;;;;4951805;28;87014;-86
2022/01/18 03:21:50;;;;;;;3.10;2.60;;;20.70;55.60;;;;;;4950466;28;89599;-90
2022/01/18 03:25:02;;;;;;;4.47;3.08;;;20.70;55.70;;;;;;4950863;28;88827;-86
2022/01/18 03:29:49;;;;;;;5.40;3.00;;;20.70;55.60;;;;;;4952088;28;88320;-88
2022/01/18 03:32:15;;;;;;;5.05;3.05;;;20.70;55.50;;;;;;4949781;28;89918;-87
2022/01/18 03:34:40;;;;;;;4.63;3.10;;;20.70;55.40;;;;;;4951541;28;88092;-86
2022/01/18 03:37:06;;;;;;;4.82;3.15;;;20.70;55.60;;;;;;4951025;28;87739;-87
2022/01/18 03:39:32;;;;;;;4.85;2.72;;;20.70;55.40;;;;;;4950775;28;87699;-88
2022/01/18 03:42:19;;;;;;;6.00;3.35;;;20.70;55.30;;;;;;4951114;28;87256;-89
2022/01/18 03:44:45;;;;;;;5.32;3.03;;;20.70;55.40;;;;;;4951069;28;89217;-89
2022/01/18 03:47:13;;;;;;;4.78;2.90;;;20.70;55.50;;;;;;4951651;28;87203;-87
2022/01/18 03:49:39;;;;;;;4.03;2.73;;;20.70;55.50;;;;;;4951360;28;88363;-85
2022/01/18 03:52:05;;;;;;;4.60;3.03;;;20.70;55.50;;;;;;4951886;28;87766;-87
2022/01/18 03:54:30;;;;;;;5.57;3.15;;;20.60;55.30;;;;;;4952059;28;88018;-89
2022/01/18 03:56:59;;;;;;;4.78;3.35;;;20.70;55.40;;;;;;4951980;28;87571;-88
2022/01/18 03:59:25;;;;;;;4.37;2.90;;;20.60;55.40;;;;;;4944917;28;87678;-85
2022/01/18 04:01:53;;;;;;;4.90;3.08;;;20.60;55.40;;;;;;4954897;28;87686;-89
2022/01/18 04:04:19;;;;;;;4.65;2.80;;;20.60;55.40;;;;;;4954065;28;87863;-89
2022/01/18 04:06:45;;;;;;;6.30;3.25;;;20.60;55.30;;;;;;4954661;28;86954;-85
2022/01/18 04:09:10;;;;;;;5.07;3.20;;;20.60;54.90;;;;;;4954476;28;87797;-83
2022/01/18 04:11:36;;;;;;;4.55;3.28;;;20.60;55.00;;;;;;4954761;28;87897;-85
2022/01/18 04:14:02;;;;;;;4.97;3.15;;;20.60;54.80;;;;;;4954445;28;88600;-87
2022/01/18 04:16:27;;;;;;;5.40;3.00;;;20.60;54.80;;;;;;4955153;28;88345;-84
2022/01/18 04:18:59;;;;;;;3.75;2.70;;;20.60;54.90;;;;;;4954387;28;87394;-89
2022/01/18 04:27:20;;;;;;;4.72;2.70;;;20.60;54.70;;;;;;4912439;28;87269;-89
2022/01/18 04:29:46;;;;;;;5.22;3.45;;;20.60;54.80;;;;;;4913695;28;87860;-85
2022/01/18 04:32:12;;;;;;;5.05;3.08;;;20.60;54.70;;;;;;4933204;28;86677;-86
2022/01/18 04:34:38;;;;;;;5.55;3.10;;;20.60;54.70;;;;;;4954069;28;87977;-85
2022/01/18 04:37:04;;;;;;;3.95;2.83;;;20.50;54.70;;;;;;4954630;28;87491;-87
2022/01/18 04:39:37;;;;;;;5.18;3.17;;;20.60;54.70;;;;;;4954204;28;88497;-83
2022/01/18 04:42:03;;;;;;;4.38;3.03;;;20.60;54.60;;;;;;4953503;28;87697;-84
2022/01/18 04:50:07;;;;;;;3.25;2.83;;;20.60;54.70;;;;;;4953482;28;87344;-84
2022/01/18 04:52:32;;;;;;;4.30;2.95;;;20.60;54.70;;;;;;4953716;28;87449;-83
2022/01/18 04:55:00;;;;;;;4.72;2.80;;;20.60;54.50;;;;;;4953178;28;87662;-87
2022/01/18 05:00:11;;;;;;;6.35;3.38;;;20.50;54.40;;;;;;4952683;28;87281;-82
2022/01/18 05:02:38;;;;;;;5.15;2.85;;;20.50;54.40;;;;;;4958527;28;89721;-83
2022/01/18 05:05:04;;;;;;;4.32;2.70;;;20.50;54.50;;;;;;4953152;28;88686;-82
2022/01/18 05:07:30;;;;;;;4.78;2.95;;;20.50;54.50;;;;;;4952594;28;88783;-84
2022/01/18 05:09:56;;;;;;;5.50;3.20;;;20.50;54.60;;;;;;4953353;28;87650;-89
2022/01/18 05:12:44;;;;;;;3.55;2.50;;;20.50;54.60;;;;;;4952799;28;86935;-82
2022/01/18 05:15:35;;;;;;;5.00;2.50;;;20.50;54.50;;;;;;4953559;28;89646;-82
2022/01/18 05:23:09;;;;;;;6.32;3.05;;;20.50;54.50;;;;;;4954050;28;87018;-87
2022/01/18 05:25:36;;;;;;;5.10;2.92;;;20.50;54.60;;;;;;4943954;28;89410;-88
2022/01/18 05:28:04;;;;;;;4.35;2.88;;;20.40;54.50;;;;;;4944940;28;90239;-81
2022/01/18 05:30:30;;;;;;;7.28;3.20;;;20.40;54.30;;;;;;4953002;28;88077;-84
2022/01/18 05:32:56;;;;;;;5.18;3.03;;;20.40;54.40;;;;;;4952725;28;87275;-85
2022/01/18 05:35:23;;;;;;;6.07;3.00;;;20.40;54.40;;;;;;4952083;28;87825;-82
2022/01/18 05:37:49;;;;;;;5.60;2.72;;;20.40;54.50;;;;;;4952536;28;87907;-82
2022/01/18 05:40:16;;;;;;;5.43;2.90;;;20.40;54.50;;;;;;4952844;28;87694;-84
2022/01/18 05:42:52;;;;;;;5.57;2.92;;;20.40;54.50;;;;;;4951004;28;89688;-83
2022/01/18 05:45:19;;;;;;;4.97;3.00;;;20.40;54.50;;;;;;4952185;28;87599;-84
2022/01/18 05:47:45;;;;;;;4.95;2.78;;;20.40;54.50;;;;;;4952031;28;87158;-82
2022/01/18 05:50:12;;;;;;;4.80;2.78;;;20.40;54.40;;;;;;4941012;28;87373;-85
2022/01/18 05:52:38;;;;;;;4.13;2.60;;;20.40;54.50;;;;;;4952139;28;87852;-85
2022/01/18 05:55:05;;;;;;;4.07;2.60;;;20.40;54.50;;;;;;4950882;28;88857;-83
2022/01/18 05:57:31;;;;;;;4.22;2.60;;;20.40;54.30;;;;;;4951319;28;88666;-85
2022/01/18 06:00:05;;;;;;;5.63;2.80;;;20.40;54.40;;;;;;4952003;28;87302;-82
2022/01/18 06:07:53;;;;;;;4.55;2.80;;;20.40;54.40;;;;;;4952503;28;87711;-86
2022/01/18 06:10:18;;;;;;;4.25;2.50;;;20.40;54.30;;;;;;4952408;28;87673;-84
2022/01/18 06:12:44;;;;;;;5.32;2.85;;;20.40;54.40;;;;;;4952580;28;86903;-85
2022/01/18 06:15:10;;;;;;;4.82;2.60;;;20.40;54.30;;;;;;4950788;28;91210;-86
2022/01/18 06:17:36;;;;;;;5.45;2.95;;;20.30;54.20;;;;;;4951398;28;87830;-83
2022/01/18 06:20:02;;;;;;;6.20;3.08;;;20.30;54.90;;;;;;4951614;28;87895;-85
2022/01/18 06:22:28;;;;;;;4.40;2.55;;;20.30;54.20;;;;;;4949805;28;88589;-86
2022/01/18 06:24:53;;;;;;;6.32;3.38;;;20.30;54.30;;;;;;4951627;28;87628;-85
2022/01/18 06:27:19;;;;;;;6.80;3.15;;;20.30;54.10;;;;;;4950060;28;90769;-82
2022/01/18 06:29:45;;;;;;;6.88;3.45;;;20.30;54.10;;;;;;4951845;28;87795;-84
2022/01/18 06:32:10;;;;;;;5.63;3.00;;;20.30;53.80;;;;;;4951723;28;87441;-83
2022/01/18 06:34:36;;;;;;;6.35;3.20;;;20.30;54.20;;;;;;4951126;28;88518;-83
2022/01/18 06:37:03;;;;;;;8.57;3.65;;;20.30;54.20;;;;;;4951298;28;87542;-85
2022/01/18 06:39:28;;;;;;;5.07;3.13;;;20.30;54.60;;;;;;4951207;28;87324;-82
2022/01/18 06:41:54;;;;;;;6.88;3.60;;;20.40;55.10;;;;;;4950674;28;87625;-82
2022/01/18 06:44:20;;;;;;;6.85;3.25;;;20.40;54.70;;;;;;4949085;28;89682;-82
2022/01/18 06:46:45;;;;;;;7.43;3.65;;;20.50;55.10;;;;;;4950438;28;88647;-84
2022/01/18 06:49:11;;;;;;;7.28;3.45;;;20.60;55.20;;;;;;4951565;28;87851;-82
2022/01/18 06:51:37;;;;;;;6.30;3.83;;;20.60;55.30;;;;;;4950834;28;87068;-83
2022/01/18 06:54:15;;;;;;;9.68;3.60;;;20.60;55.20;;;;;;4951092;28;87374;-85
2022/01/18 06:56:47;;;;;;;8.43;3.53;;;20.70;55.50;;;;;;4951146;28;87095;-86
2022/01/18 06:59:13;;;;;;;5.88;3.40;;;20.70;55.40;;;;;;4951428;28;86934;-87
2022/01/18 07:01:39;;;;;;;6.55;3.47;;;20.70;55.50;;;;;;4951709;28;86868;-82
2022/01/18 07:04:05;;;;;;;8.32;4.03;;;20.80;55.60;;;;;;4951286;28;88164;-83
2022/01/18 07:06:32;;;;;;;6.18;3.50;;;20.80;55.50;;;;;;4951169;28;87586;-84
2022/01/18 07:08:58;;;;;;;8.20;3.95;;;20.80;55.40;;;;;;4950829;28;88780;-85
2022/01/18 07:11:23;;;;;;;11.55;4.25;;;20.80;55.40;;;;;;4951232;28;87475;-81
2022/01/18 07:13:49;;;;;;;8.75;3.63;;;20.80;55.30;;;;;;4951306;28;87491;-83
2022/01/18 07:16:15;;;;;;;8.30;3.80;;;20.80;55.20;;;;;;4951069;28;88007;-83
2022/01/18 07:18:40;;;;;;;9.75;4.10;;;20.80;55.10;;;;;;4951117;28;87897;-85
2022/01/18 07:21:09;;;;;;;8.88;3.85;;;20.90;55.20;;;;;;4951187;28;87974;-83
2022/01/18 07:23:35;;;;;;;6.28;3.40;;;20.90;55.00;;;;;;4951936;28;87589;-88
2022/01/18 07:26:00;;;;;;;8.50;4.45;;;20.90;55.20;;;;;;4952043;28;87470;-82
2022/01/18 07:28:26;;;;;;;7.32;3.83;;;20.90;54.90;;;;;;4950129;28;86984;-81
2022/01/18 07:30:52;;;;;;;7.43;3.70;;;20.90;54.80;;;;;;4950089;28;87444;-86
2022/01/18 07:33:28;;;;;;;5.68;3.33;;;20.90;54.70;;;;;;4950396;28;88702;-82
2022/01/18 07:35:53;;;;;;;7.53;3.88;;;20.90;55.10;;;;;;4957291;28;88116;-84
2022/01/18 07:38:19;;;;;;;6.13;3.45;;;20.90;55.50;;;;;;4954686;28;87658;-83
2022/01/18 07:40:46;;;;;;;6.40;3.20;;;20.90;55.20;;;;;;4954346;28;87194;-89
2022/01/18 07:43:16;;;;;;;7.40;3.28;;;20.90;55.00;;;;;;4953758;28;87931;-85
2022/01/18 07:45:46;;;;;;;9.73;4.00;;;20.80;55.10;;;;;;4953453;28;88371;-82
2022/01/18 07:48:11;;;;;;;;;;;20.80;55.00;;;;;;4952018;28;87294;-85
2022/01/18 07:50:38;;;;;;;6.32;3.60;;;20.90;55.40;;;;;;4957057;28;86299;-82
2022/01/18 07:53:04;;;;;;;12.27;4.25;;;20.80;55.00;;;;;;4954295;28;87896;-82
2022/01/18 07:55:29;;;;;;;18.08;5.72;;;20.80;55.20;;;;;;4945670;28;87962;-82
2022/01/18 07:57:57;;;;;;;19.20;7.00;;;20.80;54.00;;;;;;4950825;28;88961;-84
2022/01/18 08:00:24;;;;;;;19.58;7.18;;;20.80;52.80;;;;;;4951535;28;87804;-83
2022/01/18 08:02:49;;;;;;;21.90;6.95;;;20.80;53.70;;;;;;4943411;28;90994;-83
2022/01/18 08:05:15;;;;;;;15.43;5.95;;;20.80;53.70;;;;;;4952432;28;87635;-85
2022/01/18 08:07:41;;;;;;;14.00;6.10;;;20.80;54.10;;;;;;4952567;28;87349;-83
2022/01/18 08:10:18;;;;;;;16.00;5.82;;;20.90;55.00;;;;;;4951313;28;87868;-83
2022/01/18 08:12:44;;;;;;;15.65;6.95;;;20.80;55.60;;;;;;4940774;28;90463;-84
2022/01/18 08:15:20;;;;;;;17.58;6.50;;;20.80;56.70;;;;;;4952071;28;87380;-86
2022/01/18 08:17:48;;;;;;;14.73;6.10;;;20.90;57.20;;;;;;4937046;28;87984;-82
2022/01/18 08:20:14;;;;;;;17.77;6.80;;;20.90;57.60;;;;;;4950897;28;87945;-86
2022/01/18 08:22:44;;;;;;;16.63;5.57;;;20.90;58.20;;;;;;4949103;28;91795;-88
2022/01/18 08:25:11;;;;;;;21.40;7.00;;;20.90;58.10;;;;;;4951796;28;88166;-85
2022/01/18 08:27:38;;;;;;;19.98;7.20;;;20.90;57.40;;;;;;4952160;28;87677;-85
2022/01/18 08:30:07;;;;;;;22.00;6.78;;;21.00;57.10;;;;;;4967150;28;89583;-85
2022/01/18 08:32:33;;;;;;;14.70;6.27;;;21.00;57.60;;;;;;4922832;28;87793;-88
2022/01/18 08:34:58;;;;;;;21.92;7.40;;;21.00;57.70;;;;;;4953368;28;87444;-87
2022/01/18 08:37:32;;;;;;;14.38;6.75;;;21.00;56.50;;;;;;4953323;28;87647;-83
2022/01/18 08:39:57;;;;;;;16.20;6.57;;;21.00;56.00;;;;;;4953460;28;86788;-86
2022/01/18 08:42:23;;;;;;;18.65;7.07;;;21.00;56.70;;;;;;4953065;28;87512;-85
2022/01/18 08:44:49;;;;;;;13.63;5.82;;;21.00;56.70;;;;;;4952915;28;87491;-86
2022/01/18 08:47:17;;;;;;;15.68;6.80;;;21.00;56.90;;;;;;4966909;28;88611;-89
2022/01/18 08:49:43;;;;;;;13.57;6.28;;;21.00;56.80;;;;;;4952890;28;87289;-87
2022/01/18 08:52:10;;;;;;;15.45;6.10;;;21.00;56.50;;;;;;4955568;28;87806;-87
2022/01/18 08:54:35;;;;;;;13.38;5.68;;;20.90;56.20;;;;;;4952698;28;87820;-88
2022/01/18 08:57:02;;;;;;;14.48;5.85;;;20.90;56.60;;;;;;4953086;28;87887;-86
2022/01/18 08:59:29;;;;;;;16.60;6.25;;;20.90;56.60;;;;;;4953152;28;86993;-87
2022/01/18 09:01:54;;;;;;;15.65;6.72;;;20.90;56.80;;;;;;4952940;28;87697;-87
2022/01/18 09:04:20;;;;;;;18.52;7.07;;;20.90;56.90;;;;;;4952385;28;86630;-86
2022/01/18 09:06:49;;;;;;;18.67;7.43;;;20.90;56.90;;;;;;4953108;28;87578;-85
2022/01/18 09:09:17;;;;;;;22.42;7.65;;;21.00;56.70;;;;;;4954036;28;87158;-85
2022/01/18 09:11:42;;;;;;;19.23;8.88;;;21.00;55.90;;;;;;4949926;28;92271;-87
2022/01/18 09:14:27;;;;;;;21.52;9.13;;;20.90;55.30;;;;;;4951914;28;88229;-83
2022/01/18 09:16:52;;;;;;;23.20;7.95;;;20.90;56.10;;;;;;4952522;28;87705;-86
2022/01/18 09:19:18;;;;;;;20.08;7.28;;;21.00;57.00;;;;;;4951001;28;87385;-88
2022/01/18 09:21:47;;;;;;;15.95;7.30;;;21.00;57.00;;;;;;4951805;28;87803;-87
2022/01/18 09:24:13;;;;;;;;;;;21.00;57.10;;;;;;4952387;28;88927;-85
2022/01/18 09:26:39;;;;;;;20.45;7.85;;;21.00;57.20;;;;;;4952869;28;87774;-89
2022/01/18 09:29:08;;;;;;;18.48;7.18;;;21.00;56.70;;;;;;4952304;28;86627;-81
2022/01/18 09:31:35;;;;;;;19.95;7.78;;;21.00;56.70;;;;;;4951097;28;87807;-84
2022/01/18 09:34:01;;;;;;;19.20;7.97;;;21.00;56.90;;;;;;4950436;28;90198;-89
2022/01/18 09:36:27;;;;;;;22.98;8.68;;;21.00;56.40;;;;;;4949355;28;88166;-87
2022/01/18 09:38:53;;;;;;;83.03;19.85;;;21.00;57.40;;;;;;4950420;28;87564;-85
2022/01/18 09:41:22;;;;;;;102.90;25.85;;;21.00;58.10;;;;;;4948321;28;90473;-87
2022/01/18 09:43:52;;;;;;;61.95;20.30;;;21.00;59.00;;;;;;4950911;28;87517;-85
2022/01/18 09:46:22;;;;;;;68.10;19.65;;;20.90;59.60;;;;;;4949739;28;88351;-86
2022/01/18 09:48:50;;;;;;;62.08;16.60;;;20.90;61.80;;;;;;4949912;28;87688;-85
2022/01/18 09:51:17;;;;;;;52.00;15.20;;;20.90;62.30;;;;;;4950024;28;88885;-86
2022/01/18 09:53:42;;;;;;;52.58;15.82;;;20.90;61.20;;;;;;4952819;28;87583;-88
2022/01/18 09:56:08;;;;;;;55.22;16.20;;;20.90;59.90;;;;;;4951003;28;87280;-85
2022/01/18 09:58:34;;;;;;;41.55;15.35;;;20.90;61.20;;;;;;4948175;28;87905;-83
2022/01/18 10:00:59;;;;;;;57.03;14.75;;;20.90;59.50;;;;;;4939876;28;91380;-86
2022/01/18 10:03:34;;;;;;;50.55;16.25;;;21.00;59.40;;;;;;4949310;28;88637;-85
2022/01/18 10:06:02;;;;;;;51.30;16.80;;;21.00;59.90;;;;;;4950137;28;87532;-87
2022/01/18 10:08:29;;;;;;;45.42;16.27;;;21.00;59.90;;;;;;4950570;28;87854;-84
2022/01/18 10:10:57;;;;;;;44.47;16.10;;;21.00;59.60;;;;;;4950908;28;88107;-83
2022/01/18 10:13:38;;;;;;;;;;;;;;;;;;;;;
2022/01/18 10:16:13;;;;;;;46.55;15.98;;;21.00;58.70;;;;;;4952090;28;87481;-87
2022/01/18 10:18:48;;;;;;;42.28;16.58;;;21.00;56.80;;;;;;4951454;28;89066;-88
2022/01/18 10:21:31;;;;;;;45.20;16.40;;;21.00;55.60;;;;;;4950704;28;89315;-89
2022/01/18 10:24:30;;;;;;;40.63;15.55;;;21.00;55.60;;;;;;4951582;28;89092;-88
2022/01/18 10:26:57;;;;;;;44.72;14.90;;;21.00;56.80;;;;;;4948525;28;88075;-88
2022/01/18 10:29:31;;;;;;;40.33;14.38;;;21.00;57.30;;;;;;4950472;28;87421;-84
2022/01/18 10:32:01;;;;;;;35.65;14.30;;;21.00;56.00;;;;;;4951412;28;87703;-85
2022/01/18 10:34:42;;;;;;;39.13;13.50;;;21.00;57.00;;;;;;4952559;28;87433;-86
2022/01/18 10:37:21;;;;;;;32.80;12.70;;;21.10;57.50;;;;;;4950146;28;87405;-86
2022/01/18 10:39:53;;;;;;;31.52;12.57;;;21.10;57.50;;;;;;4951392;28;86973;-88
2022/01/18 10:42:48;;;;;;;32.38;12.32;;;21.10;57.30;;;;;;4950800;28;88082;-87
2022/01/18 10:45:32;;;;;;;33.17;12.18;;;21.10;57.80;;;;;;4946925;28;87493;-85
2022/01/18 10:48:12;;;;;;;25.95;8.90;;;21.10;57.40;;;;;;4946841;28;87558;-88
2022/01/18 10:50:42;;;;;;;27.38;12.32;;;21.20;57.50;;;;;;4949853;28;88655;-86
2022/01/18 10:53:16;;;;;;;32.42;12.88;;;21.10;57.30;;;;;;4949102;28;89017;-88
2022/01/18 10:55:43;;;;;;;31.50;11.77;;;21.10;57.10;;;;;;4949421;28;88822;-88
2022/01/18 10:58:21;;;;;;;50.05;13.82;;;21.10;57.50;;;;;;4949939;28;87846;-86
2022/01/18 11:00:47;;;;;;;39.13;12.73;;;21.10;57.80;;;;;;4950041;28;87418;-88
2022/01/18 11:03:12;;;;;;;33.97;11.57;;;21.10;57.90;;;;;;4949967;28;88286;-85
2022/01/18 11:05:46;;;;;;;41.90;13.27;;;21.10;58.10;;;;;;4948805;28;88035;-86
2022/01/18 11:08:19;;;;;;;34.28;12.73;;;21.10;58.40;;;;;;4949309;28;88087;-87
2022/01/18 11:10:47;;;;;;;34.50;11.93;;;21.10;58.80;;;;;;4953549;28;87484;-86
2022/01/18 11:13:22;;;;;;;39.90;13.10;;;21.10;58.60;;;;;;4953728;28;87657;-88
2022/01/18 11:15:51;;;;;;;37.03;12.25;;;21.10;58.80;;;;;;4953086;28;88396;-87
2022/01/18 11:18:28;;;;;;;35.97;12.55;;;21.10;58.90;;;;;;4954858;28;88024;-84
2022/01/18 11:20:55;;;;;;;39.97;12.95;;;21.10;58.80;;;;;;4954684;28;87838;-85
2022/01/18 11:23:22;;;;;;;28.88;11.50;;;21.10;58.90;;;;;;4953251;28;88041;-89
2022/01/18 11:25:49;;;;;;;31.13;12.23;;;21.10;59.10;;;;;;4953822;28;87912;-85
2022/01/18 11:28:16;;;;;;;31.38;11.68;;;21.10;58.90;;;;;;4952495;28;87835;-85
2022/01/18 11:30:44;;;;;;;31.25;13.00;;;21.20;58.60;;;;;;4953424;28;87820;-87
2022/01/18 11:33:20;;;;;;;31.60;12.02;;;21.20;58.50;;;;;;4953135;28;90680;-88
2022/01/18 11:35:56;;;;;;;31.63;12.35;;;21.20;58.70;;;;;;4954717;28;87493;-87
2022/01/18 11:38:29;;;;;;;33.33;12.18;;;21.20;58.40;;;;;;4954683;28;87247;-87
2022/01/18 11:40:57;;;;;;;25.15;11.55;;;21.20;58.90;;;;;;4954740;28;86965;-86
2022/01/18 11:43:40;;;;;;;32.22;10.98;;;21.20;58.60;;;;;;4953305;28;91716;-87
2022/01/18 11:46:34;;;;;;;29.20;10.80;;;21.20;57.80;;;;;;4940731;28;90801;-86
2022/01/18 11:49:06;;;;;;;28.15;11.63;;;21.20;57.40;;;;;;4951923;28;87438;-84
2022/01/18 11:51:43;;;;;;;29.42;12.23;;;21.20;56.10;;;;;;4952263;28;87351;-84
2022/01/18 11:57:27;;;;;;;28.63;11.90;;;21.20;54.60;;;;;;4951313;28;87206;-84
2022/01/18 12:00:41;;;;;;;30.70;13.18;;;21.20;54.50;;;;;;4954589;28;87237;-88
2022/01/18 12:03:27;;;;;;;26.23;10.90;;;21.20;54.50;;;;;;4953239;28;87116;-87
2022/01/18 12:06:02;;;;;;;24.80;11.43;;;21.20;55.10;;;;;;4953803;28;87711;-89
2022/01/18 12:08:41;;;;;;;24.38;11.20;;;21.20;55.70;;;;;;4953317;28;89446;-88
2022/01/18 12:11:26;;;;;;;24.00;10.93;;;21.20;55.80;;;;;;4952814;28;88045;-86
2022/01/18 12:13:58;;;;;;;20.85;10.27;;;21.20;55.70;;;;;;4954999;28;87873;-88
2022/01/18 12:16:29;;;;;;;23.58;10.55;;;21.20;55.50;;;;;;4953634;28;87756;-87
2022/01/18 12:19:04;;;;;;;26.92;10.73;;;21.30;55.60;;;;;;4953467;28;87936;-85
2022/01/18 12:21:32;;;;;;;23.85;10.52;;;21.20;55.40;;;;;;4953717;28;87295;-87
2022/01/18 12:24:16;;;;;;;24.70;10.05;;;21.20;55.90;;;;;;4953087;28;87463;-87
2022/01/18 12:26:47;;;;;;;25.50;10.32;;;21.20;56.50;;;;;;4960128;28;91306;-87
2022/01/18 12:34:24;;;;;;;19.30;9.13;;;21.20;54.90;;;;;;4951928;28;87269;-84
2022/01/18 12:37:19;;;;;;;23.58;8.80;;;21.20;54.90;;;;;;4950080;28;90656;-83
2022/01/18 12:39:51;;;;;;;21.75;8.95;;;21.20;54.70;;;;;;4952027;28;88610;-87
2022/01/18 12:45:38;;;;;;;20.02;7.75;;;21.20;54.60;;;;;;4952078;28;87302;-80
2022/01/18 12:48:08;;;;;;;20.52;8.05;;;21.20;56.50;;;;;;4935554;28;87653;-80
2022/01/18 12:50:34;;;;;;;21.17;8.95;;;21.20;54.20;;;;;;4951464;28;87994;-79
2022/01/18 12:53:08;;;;;;;20.00;8.32;;;21.20;54.20;;;;;;4951570;28;88141;-83
2022/01/18 12:55:46;;;;;;;20.00;8.70;;;21.20;54.00;;;;;;4950740;28;86693;-83
2022/01/18 12:58:20;;;;;;;18.10;8.15;;;21.20;53.40;;;;;;4951137;28;87879;-82
2022/01/18 13:00:49;;;;;;;13.82;6.97;;;21.20;52.10;;;;;;4944010;28;88463;-83
2022/01/18 13:03:26;;;;;;;16.13;7.70;;;21.20;52.20;;;;;;4963196;28;89348;-82
2022/01/18 13:05:57;;;;;;;18.38;7.78;;;21.20;52.10;;;;;;4950035;28;87578;-84
2022/01/18 13:08:26;;;;;;;19.25;7.43;;;21.20;52.60;;;;;;4967216;28;90549;-83
2022/01/18 13:10:53;;;;;;;20.95;7.60;;;21.20;53.10;;;;;;4951809;28;87490;-83
2022/01/18 13:13:22;;;;;;;16.40;7.63;;;21.20;53.30;;;;;;4950547;28;87454;-84
2022/01/18 13:24:12;;;;;;;13.68;6.90;;;21.30;55.20;;;;;;4952442;28;87284;-84
2022/01/18 13:26:43;;;;;;;20.65;7.82;;;21.30;55.80;;;;;;4950748;28;89441;-88
2022/01/18 13:29:14;;;;;;;17.02;7.75;;;21.20;55.70;;;;;;4952237;28;89601;-83
2022/01/18 13:31:43;;;;;;;13.35;7.00;;;21.20;56.60;;;;;;4951190;28;89505;-84
2022/01/18 13:34:12;;;;;;;;;;;21.20;56.90;;;;;;4954275;28;87272;-83
2022/01/18 13:36:55;;;;;;;17.38;7.00;;;21.30;57.40;;;;;;4953714;28;89367;-87
2022/01/18 13:39:28;;;;;;;15.95;6.65;;;21.30;57.40;;;;;;4952618;28;87385;-88
2022/01/18 13:41:55;;;;;;;14.73;7.43;;;21.30;57.30;;;;;;4950575;28;90045;-86
2022/01/18 13:44:22;;;;;;;14.18;6.38;;;21.30;57.40;;;;;;4943586;28;87556;-86
2022/01/18 13:46:48;;;;;;;15.02;7.10;;;21.20;57.20;;;;;;4952999;28;87473;-83
2022/01/18 13:49:14;;;;;;;14.50;6.93;;;21.30;57.10;;;;;;4951567;28;90476;-87
2022/01/18 13:51:57;;;;;;;15.20;6.57;;;21.20;57.30;;;;;;4953406;28;87467;-84
2022/01/18 13:54:27;;;;;;;17.77;6.53;;;21.30;57.40;;;;;;4953467;28;88498;-88
2022/01/18 13:56:53;;;;;;;16.48;6.88;;;21.30;58.00;;;;;;4953276;28;88218;-86
2022/01/18 13:59:27;;;;;;;10.65;5.75;;;21.30;58.00;;;;;;4954274;28;88236;-88
2022/01/18 14:01:52;;;;;;;13.75;6.18;;;21.20;58.00;;;;;;4952077;28;88345;-83
2022/01/18 14:04:21;;;;;;;14.82;6.53;;;21.20;58.00;;;;;;4966663;28;87474;-83
2022/01/18 14:06:51;;;;;;;14.40;6.53;;;21.30;58.00;;;;;;4939249;28;88219;-84
2022/01/18 14:09:21;;;;;;;14.60;6.25;;;21.30;58.30;;;;;;4949862;28;90900;-86
2022/01/18 14:11:50;;;;;;;14.25;6.47;;;21.30;58.30;;;;;;4965434;28;91791;-81
2022/01/18 14:14:29;;;;;;;13.50;6.05;;;21.40;58.40;;;;;;4951307;28;86917;-84
2022/01/18 14:16:58;;;;;;;11.85;6.00;;;21.40;58.50;;;;;;4950155;28;88085;-84
2022/01/18 14:19:32;;;;;;;11.00;6.03;;;21.40;58.60;;;;;;4914645;28;92279;-84